Time;durP1;ratioP1;P1;durP2;ratioP2;P2;SDS_P1;SDS_P2;PMS_P1;PMS_P2;Temp;Humidity;BMP_temperature;BMP_pressure;BME280_temperature;BME280_humidity;BME280_pressure;Samples;Min_cycle;Max_cycle;Signal;HPM_P1;HPM_P2
2024/04/22 00:00:58;;;;;;;3.85;2.25;;;;;;;;;;5374110;26;20008;-62
2024/04/22 00:03:27;;;;;;;3.45;2.10;;;;;;;;;;5380006;26;20000;-62
2024/04/22 00:05:55;;;;;;;4.13;2.30;;;;;;;;;;5380094;26;20445;-62
2024/04/22 00:08:21;;;;;;;3.65;2.15;;;;;;;;;;5379876;26;20031;-62
2024/04/22 00:10:50;;;;;;;3.53;1.85;;;;;;;;;;5380111;26;20079;-61
2024/04/22 00:13:16;;;;;;;3.65;2.05;;;;;;;;;;5379955;26;20422;-61
2024/04/22 00:15:44;;;;;;;3.90;2.22;;;;;;;;;;5380304;26;20004;-61
2024/04/22 00:18:10;;;;;;;3.88;2.20;;;;;;;;;;5379877;26;20004;-62
2024/04/22 00:20:44;;;;;;;4.75;2.47;;;;;;;;;;5380050;26;20134;-61
2024/04/22 00:23:10;;;;;;;3.75;1.92;;;;;;;;;;5379870;26;20007;-61
2024/04/22 00:25:39;;;;;;;5.20;2.47;;;;;;;;;;5379379;26;20019;-61
2024/04/22 00:28:06;;;;;;;3.72;2.08;;;;;;;;;;5378987;26;20008;-60
2024/04/22 00:30:34;;;;;;;3.55;2.30;;;;;;;;;;5380003;26;20004;-60
2024/04/22 00:33:00;;;;;;;5.35;2.78;;;;;;;;;;5380035;26;20000;-61
2024/04/22 00:35:29;;;;;;;5.18;2.72;;;;;;;;;;5379748;26;20008;-61
2024/04/22 00:37:58;;;;;;;4.28;2.58;;;;;;;;;;5379683;26;20015;-61
2024/04/22 00:40:26;;;;;;;4.50;2.45;;;;;;;;;;5379724;26;20012;-61
2024/04/22 00:42:52;;;;;;;4.68;2.70;;;;;;;;;;5379819;26;20019;-59
2024/04/22 00:45:21;;;;;;;5.63;3.10;;;;;;;;;;5379778;26;20452;-62
2024/04/22 00:47:47;;;;;;;4.85;3.00;;;;;;;;;;5379446;26;20011;-62
2024/04/22 00:50:16;;;;;;;5.50;3.08;;;;;;;;;;5379791;26;20008;-62
2024/04/22 00:52:43;;;;;;;5.22;3.05;;;;;;;;;;5379540;26;20015;-62
2024/04/22 00:55:15;;;;;;;4.90;2.88;;;;;;;;;;5379869;26;20004;-62
2024/04/22 00:57:41;;;;;;;6.13;3.38;;;;;;;;;;5379461;26;20015;-62
2024/04/22 01:00:11;;;;;;;5.68;4.15;;;;;;;;;;5379303;26;20511;-61
2024/04/22 01:02:37;;;;;;;6.45;3.55;;;;;;;;;;5379509;26;20005;-61
2024/04/22 01:05:06;;;;;;;6.70;3.83;;;;;;;;;;5379373;26;20077;-62
2024/04/22 01:07:32;;;;;;;6.07;4.15;;;;;;;;;;5379040;26;20464;-62
2024/04/22 01:10:02;;;;;;;6.68;4.20;;;;;;;;;;5379389;26;20004;-61
2024/04/22 01:12:30;;;;;;;7.05;4.25;;;;;;;;;;5379510;26;19996;-62
2024/04/22 01:14:59;;;;;;;8.20;4.75;;;;;;;;;;5379573;26;20015;-59
2024/04/22 01:17:34;;;;;;;7.95;4.55;;;;;;;;;;5379345;26;20077;-59
2024/04/22 01:20:03;;;;;;;6.93;4.03;;;;;;;;;;5379401;26;20024;-60
2024/04/22 01:22:31;;;;;;;8.30;4.55;;;;;;;;;;5379138;26;20077;-61
2024/04/22 01:25:02;;;;;;;9.60;5.55;;;;;;;;;;5379772;26;20000;-62
2024/04/22 01:27:30;;;;;;;8.40;5.60;;;;;;;;;;5379392;26;19996;-60
2024/04/22 01:29:59;;;;;;;9.50;5.43;;;;;;;;;;5379704;26;20004;-61
2024/04/22 01:32:25;;;;;;;9.63;6.07;;;;;;;;;;5377857;26;20028;-61
2024/04/22 01:34:59;;;;;;;10.43;6.68;;;;;;;;;;5379016;26;20015;-60
2024/04/22 01:37:25;;;;;;;11.15;6.15;;;;;;;;;;5378808;26;20001;-60
2024/04/22 01:39:56;;;;;;;10.60;6.72;;;;;;;;;;5393560;26;20085;-62
2024/04/22 01:42:23;;;;;;;10.75;6.82;;;;;;;;;;5378795;26;20008;-60
2024/04/22 01:44:52;;;;;;;17.50;6.97;;;;;;;;;;5377965;26;20680;-58
2024/04/22 01:47:18;;;;;;;10.73;7.18;;;;;;;;;;5378872;26;20012;-62
2024/04/22 01:49:47;;;;;;;10.00;6.93;;;;;;;;;;5379001;26;20078;-60
2024/04/22 01:52:13;;;;;;;10.90;6.85;;;;;;;;;;5380249;26;20078;-62
2024/04/22 01:54:42;;;;;;;13.20;7.75;;;;;;;;;;5386412;26;20009;-61
2024/04/22 01:57:11;;;;;;;10.32;6.50;;;;;;;;;;5378864;26;20015;-61
2024/04/22 01:59:39;;;;;;;9.65;6.72;;;;;;;;;;5378764;26;20470;-62
2024/04/22 02:02:05;;;;;;;10.35;6.75;;;;;;;;;;5378614;26;20015;-62
2024/04/22 02:04:34;;;;;;;10.32;6.30;;;;;;;;;;5378435;26;20020;-62
2024/04/22 02:07:00;;;;;;;13.40;6.60;;;;;;;;;;5378345;26;20011;-60
2024/04/22 02:09:28;;;;;;;11.75;6.82;;;;;;;;;;5378411;26;20008;-61
2024/04/22 02:11:54;;;;;;;10.18;6.43;;;;;;;;;;5379022;26;20390;-62
2024/04/22 02:14:27;;;;;;;10.20;6.82;;;;;;;;;;5377736;26;20009;-61
2024/04/22 02:16:53;;;;;;;10.13;6.88;;;;;;;;;;5378189;26;20001;-61
2024/04/22 02:19:22;;;;;;;12.93;7.15;;;;;;;;;;5378439;26;20019;-61
2024/04/22 02:21:49;;;;;;;10.80;6.85;;;;;;;;;;5377983;26;20012;-61
2024/04/22 02:24:18;;;;;;;10.25;6.90;;;;;;;;;;5377758;26;20393;-62
2024/04/22 02:26:44;;;;;;;10.48;6.57;;;;;;;;;;5378019;26;20090;-60
2024/04/22 02:29:12;;;;;;;10.60;6.90;;;;;;;;;;5377992;26;20008;-60
2024/04/22 02:31:42;;;;;;;11.35;7.07;;;;;;;;;;5378260;26;20000;-58
2024/04/22 02:34:11;;;;;;;9.75;6.75;;;;;;;;;;5378214;26;20085;-61
2024/04/22 02:36:37;;;;;;;9.45;6.20;;;;;;;;;;5377642;26;20016;-60
2024/04/22 02:39:05;;;;;;;10.90;6.45;;;;;;;;;;5377360;26;20378;-62
2024/04/22 02:41:31;;;;;;;11.40;6.47;;;;;;;;;;5392542;26;20371;-62
2024/04/22 02:44:00;;;;;;;10.90;7.00;;;;;;;;;;5378333;26;20078;-62
2024/04/22 02:46:25;;;;;;;11.63;6.95;;;;;;;;;;5381572;26;20304;-61
2024/04/22 02:48:57;;;;;;;11.57;6.72;;;;;;;;;;5381270;26;20012;-62
2024/04/22 02:51:22;;;;;;;9.13;6.13;;;;;;;;;;5381192;26;20019;-61
2024/04/22 02:53:51;;;;;;;10.63;6.88;;;;;;;;;;5381384;26;20535;-61
2024/04/22 02:56:17;;;;;;;10.05;6.50;;;;;;;;;;5381045;26;20417;-62
2024/04/22 02:58:48;;;;;;;10.63;6.72;;;;;;;;;;5381359;26;20004;-61
2024/04/22 03:01:14;;;;;;;10.43;6.65;;;;;;;;;;5381063;26;20395;-60
2024/04/22 03:03:43;;;;;;;9.60;5.95;;;;;;;;;;5380633;26;20000;-61
2024/04/22 03:06:11;;;;;;;10.40;5.97;;;;;;;;;;5380588;26;20008;-61
2024/04/22 03:08:41;;;;;;;9.82;5.80;;;;;;;;;;5380629;26;20019;-60
2024/04/22 03:11:07;;;;;;;8.65;5.57;;;;;;;;;;5381399;26;20010;-61
2024/04/22 03:13:36;;;;;;;9.68;5.70;;;;;;;;;;5381069;26;20008;-62
2024/04/22 03:16:02;;;;;;;8.60;5.85;;;;;;;;;;5381366;26;20000;-60
2024/04/22 03:18:30;;;;;;;9.77;6.22;;;;;;;;;;5380987;26;20126;-62
2024/04/22 03:20:56;;;;;;;8.98;5.90;;;;;;;;;;5381286;26;20297;-57
2024/04/22 03:23:27;;;;;;;9.30;5.65;;;;;;;;;;5380567;26;20019;-60
2024/04/22 03:25:53;;;;;;;8.95;6.00;;;;;;;;;;5380833;26;20367;-59
2024/04/22 03:28:22;;;;;;;9.93;6.10;;;;;;;;;;5380505;26;20008;-61
2024/04/22 03:30:48;;;;;;;8.55;5.85;;;;;;;;;;5380953;26;20085;-62
2024/04/22 03:33:16;;;;;;;9.15;6.32;;;;;;;;;;5380788;26;20012;-59
2024/04/22 03:35:42;;;;;;;9.10;5.82;;;;;;;;;;5381023;26;20000;-59
2024/04/22 03:38:11;;;;;;;11.10;6.25;;;;;;;;;;5380693;26;20000;-62
2024/04/22 03:40:42;;;;;;;10.23;6.20;;;;;;;;;;5381000;26;20020;-60
2024/04/22 03:43:12;;;;;;;10.25;5.97;;;;;;;;;;5380694;26;20513;-60
2024/04/22 03:45:44;;;;;;;10.77;6.38;;;;;;;;;;5380618;26;20004;-61
2024/04/22 03:50:57;;;;;;;10.88;6.60;;;;;;;;;;5377448;26;20446;-62
2024/04/22 03:53:25;;;;;;;11.52;6.60;;;;;;;;;;5380271;26;20142;-61
2024/04/22 03:55:56;;;;;;;11.02;6.22;;;;;;;;;;5380066;26;20445;-61
2024/04/22 03:58:25;;;;;;;10.05;6.68;;;;;;;;;;5380274;26;20015;-61
2024/04/22 04:00:54;;;;;;;9.48;6.38;;;;;;;;;;5380601;26;20320;-59
2024/04/22 04:03:19;;;;;;;10.95;6.53;;;;;;;;;;5380566;26;20012;-58
2024/04/22 04:05:48;;;;;;;9.90;6.13;;;;;;;;;;5380296;26;20102;-57
2024/04/22 04:08:14;;;;;;;10.68;6.65;;;;;;;;;;5379946;26;20004;-60
2024/04/22 04:10:43;;;;;;;9.52;6.60;;;;;;;;;;5379833;26;20012;-59
2024/04/22 04:13:12;;;;;;;12.27;6.30;;;;;;;;;;5380180;26;20008;-55
2024/04/22 04:15:41;;;;;;;9.30;6.00;;;;;;;;;;5380387;26;20004;-60
2024/04/22 04:18:10;;;;;;;8.40;5.60;;;;;;;;;;5379921;26;20010;-59
2024/04/22 04:20:35;;;;;;;10.25;5.90;;;;;;;;;;5379324;26;20008;-59
2024/04/22 04:23:04;;;;;;;10.20;6.53;;;;;;;;;;5379519;26;20022;-57
2024/04/22 04:25:30;;;;;;;9.45;6.15;;;;;;;;;;5380483;26;20379;-60
2024/04/22 04:27:59;;;;;;;9.30;6.18;;;;;;;;;;5380437;26;20000;-55
2024/04/22 04:30:27;;;;;;;11.18;6.18;;;;;;;;;;5381604;26;20008;-57
2024/04/22 04:32:56;;;;;;;10.68;6.85;;;;;;;;;;5398595;26;20008;-57
2024/04/22 04:35:22;;;;;;;9.27;6.18;;;;;;;;;;5379743;26;20015;-57
2024/04/22 04:37:51;;;;;;;12.10;6.78;;;;;;;;;;5380163;26;20077;-56
2024/04/22 04:40:17;;;;;;;10.70;6.72;;;;;;;;;;5380168;26;20451;-58
2024/04/22 04:42:46;;;;;;;10.25;6.70;;;;;;;;;;5379835;26;20467;-55
2024/04/22 04:45:12;;;;;;;12.00;7.10;;;;;;;;;;5380471;26;20011;-58
2024/04/22 04:47:43;;;;;;;11.25;6.80;;;;;;;;;;5394486;26;20004;-57
2024/04/22 04:50:09;;;;;;;12.13;6.78;;;;;;;;;;5379992;26;20008;-52
2024/04/22 04:52:38;;;;;;;11.60;6.97;;;;;;;;;;5379812;26;20082;-57
2024/04/22 04:55:04;;;;;;;12.10;7.18;;;;;;;;;;5380001;26;20004;-57
2024/04/22 04:57:33;;;;;;;11.38;7.30;;;;;;;;;;5382157;26;20339;-58
2024/04/22 04:59:59;;;;;;;12.48;7.05;;;;;;;;;;5415316;26;20660;-57
2024/04/22 05:02:27;;;;;;;10.60;7.05;;;;;;;;;;5384763;26;20015;-57
2024/04/22 05:04:56;;;;;;;11.45;6.80;;;;;;;;;;5394675;26;20081;-57
2024/04/22 05:07:25;;;;;;;12.00;6.75;;;;;;;;;;5393273;26;20083;-58
2024/04/22 05:09:51;;;;;;;10.55;6.82;;;;;;;;;;5379946;26;20024;-56
2024/04/22 05:12:19;;;;;;;10.88;6.60;;;;;;;;;;5380185;26;20012;-56
2024/04/22 05:14:45;;;;;;;10.82;6.47;;;;;;;;;;5380143;26;20008;-57
2024/04/22 05:17:14;;;;;;;10.18;6.63;;;;;;;;;;5379794;26;20082;-58
2024/04/22 05:19:42;;;;;;;11.52;7.57;;;;;;;;;;5384378;26;20019;-57
2024/04/22 05:22:11;;;;;;;9.45;6.63;;;;;;;;;;5388219;26;20001;-58
2024/04/22 05:24:39;;;;;;;9.13;6.28;;;;;;;;;;5379755;26;20085;-55
2024/04/22 05:27:05;;;;;;;9.48;6.43;;;;;;;;;;5405689;26;20003;-57
2024/04/22 05:29:34;;;;;;;10.43;6.47;;;;;;;;;;5382756;26;20027;-55
2024/04/22 05:32:00;;;;;;;9.85;6.32;;;;;;;;;;5379698;26;20000;-52
2024/04/22 05:37:16;;;;;;;9.40;6.25;;;;;;;;;;5382372;26;20052;-52
2024/04/22 05:39:44;;;;;;;10.27;6.45;;;;;;;;;;5379885;26;20036;-56
2024/04/22 05:42:13;;;;;;;11.30;6.78;;;;;;;;;;5391824;26;20315;-57
2024/04/22 05:44:41;;;;;;;10.15;6.53;;;;;;;;;;5410150;26;20015;-56
2024/04/22 05:47:07;;;;;;;9.40;6.22;;;;;;;;;;5377844;26;20031;-55
2024/04/22 05:49:36;;;;;;;10.70;6.00;;;;;;;;;;5393351;26;20004;-55
2024/04/22 05:52:02;;;;;;;11.02;6.00;;;;;;;;;;5377527;26;20012;-58
2024/04/22 05:54:34;;;;;;;10.15;7.10;;;;;;;;;;5375670;26;20044;-54
2024/04/22 05:57:00;;;;;;;9.85;6.45;;;;;;;;;;5386430;26;20032;-57
2024/04/22 05:59:28;;;;;;;13.00;6.00;;;;;;;;;;5378780;26;20042;-57
2024/04/22 06:01:57;;;;;;;10.57;6.72;;;;;;;;;;5386471;26;20439;-55
2024/04/22 06:04:23;;;;;;;9.95;6.30;;;;;;;;;;5379687;26;20086;-58
2024/04/22 06:06:52;;;;;;;10.48;6.75;;;;;;;;;;5392276;26;20004;-55
2024/04/22 06:09:22;;;;;;;8.82;5.65;;;;;;;;;;5378264;26;20012;-55
2024/04/22 06:11:53;;;;;;;9.63;5.88;;;;;;;;;;5378587;26;20398;-58
2024/04/22 06:14:19;;;;;;;9.90;6.10;;;;;;;;;;5393268;26;20014;-57
2024/04/22 06:16:48;;;;;;;9.52;6.20;;;;;;;;;;5392645;26;20003;-58
2024/04/22 06:19:14;;;;;;;10.75;6.00;;;;;;;;;;5380498;26;20019;-58
2024/04/22 06:21:43;;;;;;;9.60;6.22;;;;;;;;;;5382501;26;20355;-57
2024/04/22 06:24:09;;;;;;;11.43;6.88;;;;;;;;;;5381370;26;20027;-55
2024/04/22 06:26:37;;;;;;;9.20;6.65;;;;;;;;;;5387389;26;20008;-50
2024/04/22 06:29:06;;;;;;;11.52;6.40;;;;;;;;;;5381414;26;20355;-53
2024/04/22 06:31:34;;;;;;;10.52;6.18;;;;;;;;;;5396523;26;20036;-56
2024/04/22 06:34:00;;;;;;;9.05;6.03;;;;;;;;;;5396592;26;20000;-55
2024/04/22 06:36:29;;;;;;;8.95;6.15;;;;;;;;;;5381432;26;20081;-54
2024/04/22 06:38:55;;;;;;;10.45;6.60;;;;;;;;;;5381436;26;20004;-51
2024/04/22 06:41:23;;;;;;;10.18;6.13;;;;;;;;;;5396230;26;19995;-54
2024/04/22 06:43:49;;;;;;;11.05;6.60;;;;;;;;;;5359108;26;20067;-56
2024/04/22 06:46:20;;;;;;;10.57;6.63;;;;;;;;;;5387676;26;19999;-55
2024/04/22 06:48:46;;;;;;;11.27;6.95;;;;;;;;;;5379865;26;20304;-54
2024/04/22 06:51:15;;;;;;;8.77;6.50;;;;;;;;;;5383547;26;20045;-52
2024/04/22 06:53:41;;;;;;;9.63;6.38;;;;;;;;;;5378103;26;20077;-57
2024/04/22 06:56:10;;;;;;;9.77;6.38;;;;;;;;;;5368102;26;20538;-57
2024/04/22 06:58:36;;;;;;;9.07;6.68;;;;;;;;;;5379129;26;20077;-57
2024/04/22 07:01:05;;;;;;;9.88;6.22;;;;;;;;;;5372844;26;20001;-56
2024/04/22 07:03:34;;;;;;;10.32;7.03;;;;;;;;;;5364403;26;20012;-57
2024/04/22 07:06:02;;;;;;;10.85;6.75;;;;;;;;;;5381443;26;20020;-54
2024/04/22 07:08:28;;;;;;;10.57;6.68;;;;;;;;;;5358857;26;20019;-57
2024/04/22 07:10:57;;;;;;;9.60;6.22;;;;;;;;;;5395847;26;20004;-55
2024/04/22 07:13:22;;;;;;;10.52;6.45;;;;;;;;;;5369693;26;20371;-57
2024/04/22 07:15:51;;;;;;;12.25;6.55;;;;;;;;;;5374181;26;20016;-57
2024/04/22 07:18:17;;;;;;;10.48;6.40;;;;;;;;;;5380443;26;20059;-57
2024/04/22 07:20:48;;;;;;;10.00;6.85;;;;;;;;;;5380768;26;20000;-57
2024/04/22 07:23:14;;;;;;;8.60;5.53;;;;;;;;;;5362067;26;20025;-57
2024/04/22 07:25:43;;;;;;;11.50;6.97;;;;;;;;;;5378392;26;20015;-50
2024/04/22 07:28:10;;;;;;;12.70;6.97;;;;;;;;;;5382532;26;20023;-54
2024/04/22 07:30:40;;;;;;;13.02;6.47;;;;;;;;;;5364881;26;20013;-57
2024/04/22 07:33:07;;;;;;;10.60;7.10;;;;;;;;;;5380326;26;20004;-51
2024/04/22 07:35:36;;;;;;;11.00;6.55;;;;;;;;;;5368350;26;20004;-55
2024/04/22 07:38:09;;;;;;;9.77;6.80;;;;;;;;;;5365278;26;19997;-50
2024/04/22 07:40:39;;;;;;;10.82;6.53;;;;;;;;;;5379253;26;20024;-55
2024/04/22 07:43:05;;;;;;;10.50;7.22;;;;;;;;;;5368177;26;20362;-56
2024/04/22 07:45:33;;;;;;;12.38;7.57;;;;;;;;;;5377715;26;20016;-56
2024/04/22 07:47:59;;;;;;;12.10;7.53;;;;;;;;;;5369237;26;20023;-67
2024/04/22 07:50:28;;;;;;;12.88;7.47;;;;;;;;;;5364921;26;20008;-57
2024/04/22 07:52:54;;;;;;;11.32;7.75;;;;;;;;;;5363666;26;20451;-58
2024/04/22 07:55:27;;;;;;;11.60;7.15;;;;;;;;;;5365332;26;20016;-58
2024/04/22 07:57:53;;;;;;;10.85;7.20;;;;;;;;;;5376546;26;20008;-56
2024/04/22 08:00:23;;;;;;;11.07;7.53;;;;;;;;;;5371252;26;20000;-59
2024/04/22 08:02:50;;;;;;;10.88;7.22;;;;;;;;;;5378435;26;21707;-59
2024/04/22 08:05:20;;;;;;;12.48;8.30;;;;;;;;;;5367912;26;20079;-56
2024/04/22 08:07:47;;;;;;;11.20;7.68;;;;;;;;;;5371592;26;20513;-57
2024/04/22 08:10:16;;;;;;;11.85;7.30;;;;;;;;;;5368147;26;20011;-58
2024/04/22 08:12:44;;;;;;;11.27;7.15;;;;;;;;;;5363391;26;20023;-59
2024/04/22 08:15:13;;;;;;;10.38;7.22;;;;;;;;;;5372605;26;20048;-59
2024/04/22 08:17:39;;;;;;;10.82;6.57;;;;;;;;;;5367664;26;20016;-58
2024/04/22 08:20:08;;;;;;;15.77;8.18;;;;;;;;;;5368576;26;20019;-62
2024/04/22 08:22:34;;;;;;;10.75;6.38;;;;;;;;;;5372299;26;20370;-63
2024/04/22 08:25:03;;;;;;;13.02;7.45;;;;;;;;;;5368360;26;20009;-59
2024/04/22 08:27:29;;;;;;;13.18;6.90;;;;;;;;;;5362130;26;20004;-59
2024/04/22 08:30:01;;;;;;;12.02;7.45;;;;;;;;;;5365402;26;20363;-56
2024/04/22 08:32:26;;;;;;;11.95;7.13;;;;;;;;;;5355561;26;20021;-59
2024/04/22 08:34:55;;;;;;;12.57;6.93;;;;;;;;;;5374948;26;20359;-64
2024/04/22 08:37:21;;;;;;;10.45;6.80;;;;;;;;;;5378956;26;20697;-58
2024/04/22 08:39:49;;;;;;;9.30;6.55;;;;;;;;;;5387075;26;20007;-56
2024/04/22 08:42:18;;;;;;;10.02;6.68;;;;;;;;;;5371990;26;20016;-58
2024/04/22 08:44:47;;;;;;;11.10;7.15;;;;;;;;;;5373331;26;20011;-59
2024/04/22 08:47:15;;;;;;;9.82;6.65;;;;;;;;;;5379005;26;20011;-59
2024/04/22 08:49:44;;;;;;;8.65;5.68;;;;;;;;;;5381300;26;20556;-58
2024/04/22 08:52:12;;;;;;;8.73;6.70;;;;;;;;;;5389542;26;20019;-59
2024/04/22 08:54:41;;;;;;;10.63;6.13;;;;;;;;;;5379137;26;20019;-60
2024/04/22 08:57:07;;;;;;;11.70;7.32;;;;;;;;;;5382611;26;20007;-60
2024/04/22 08:59:35;;;;;;;10.00;6.82;;;;;;;;;;5395151;26;20011;-60
2024/04/22 09:02:03;;;;;;;9.60;6.88;;;;;;;;;;5379907;26;20045;-60
2024/04/22 09:04:34;;;;;;;10.98;7.50;;;;;;;;;;5378647;26;20011;-58
2024/04/22 09:07:03;;;;;;;10.90;7.00;;;;;;;;;;5372512;26;20450;-59
2024/04/22 09:09:31;;;;;;;10.15;6.43;;;;;;;;;;5355902;26;20507;-59
2024/04/22 09:11:57;;;;;;;11.52;7.55;;;;;;;;;;5366109;26;20441;-56
2024/04/22 09:14:26;;;;;;;9.90;7.13;;;;;;;;;;5369691;26;20077;-59
2024/04/22 09:16:52;;;;;;;10.30;6.57;;;;;;;;;;5363404;26;20459;-58
2024/04/22 09:19:24;;;;;;;10.20;6.72;;;;;;;;;;5373241;26;20018;-58
2024/04/22 09:21:54;;;;;;;11.52;8.23;;;;;;;;;;5369887;26;20008;-57
2024/04/22 09:24:24;;;;;;;11.97;7.40;;;;;;;;;;5361297;26;20016;-59
2024/04/22 09:26:50;;;;;;;9.80;6.75;;;;;;;;;;5370881;26;20250;-59
2024/04/22 09:29:21;;;;;;;9.80;7.20;;;;;;;;;;5370919;26;20001;-57
2024/04/22 09:31:48;;;;;;;11.70;6.68;;;;;;;;;;5365328;26;20016;-58
2024/04/22 09:34:16;;;;;;;10.27;7.22;;;;;;;;;;5372833;26;20013;-59
2024/04/22 09:36:43;;;;;;;9.95;6.95;;;;;;;;;;5361377;26;20001;-59
2024/04/22 09:39:14;;;;;;;10.38;6.72;;;;;;;;;;5360965;26;21192;-59
2024/04/22 09:41:41;;;;;;;8.68;6.68;;;;;;;;;;5377973;26;20020;-59
2024/04/22 09:44:11;;;;;;;10.57;7.13;;;;;;;;;;5377843;26;20019;-57
2024/04/22 09:46:39;;;;;;;9.53;7.30;;;;;;;;;;5375120;26;20340;-59
2024/04/22 09:49:09;;;;;;;10.27;6.82;;;;;;;;;;5370227;26;20352;-59
2024/04/22 09:51:38;;;;;;;10.25;7.07;;;;;;;;;;5364713;26;20081;-59
2024/04/22 09:54:07;;;;;;;9.50;6.25;;;;;;;;;;5373561;26;20019;-59
2024/04/22 09:56:38;;;;;;;10.45;6.75;;;;;;;;;;5381323;26;20448;-56
2024/04/22 09:59:08;;;;;;;10.32;7.80;;;;;;;;;;5382475;26;20424;-59
2024/04/22 10:01:34;;;;;;;10.75;6.90;;;;;;;;;;5382267;26;20498;-58
2024/04/22 10:04:03;;;;;;;10.32;6.60;;;;;;;;;;5382053;26;20436;-59
2024/04/22 10:06:30;;;;;;;11.02;7.13;;;;;;;;;;5382247;26;20000;-58
2024/04/22 10:09:01;;;;;;;11.52;7.60;;;;;;;;;;5382123;26;20327;-56
2024/04/22 10:11:29;;;;;;;12.85;8.07;;;;;;;;;;5382322;26;20023;-57
2024/04/22 10:14:10;;;;;;;10.40;6.85;;;;;;;;;;5382229;26;20032;-59
2024/04/22 10:16:36;;;;;;;10.73;7.47;;;;;;;;;;5382397;26;20443;-59
2024/04/22 10:19:05;;;;;;;9.77;7.32;;;;;;;;;;5381766;26;20134;-59
2024/04/22 10:21:30;;;;;;;10.55;7.18;;;;;;;;;;5381969;26;20336;-59
2024/04/22 10:23:59;;;;;;;10.45;7.20;;;;;;;;;;5372490;26;20017;-64
2024/04/22 10:26:25;;;;;;;11.55;7.82;;;;;;;;;;5365908;26;20016;-64
2024/04/22 10:28:54;;;;;;;10.73;7.65;;;;;;;;;;5359701;26;20011;-59
2024/04/22 10:31:24;;;;;;;10.13;7.30;;;;;;;;;;5365194;26;20477;-59
2024/04/22 10:33:52;;;;;;;10.10;7.00;;;;;;;;;;5364738;26;20000;-59
2024/04/22 10:36:18;;;;;;;9.82;7.10;;;;;;;;;;5381355;26;20969;-58
2024/04/22 10:38:47;;;;;;;12.45;7.15;;;;;;;;;;5378566;26;20001;-59
2024/04/22 10:41:14;;;;;;;9.25;6.43;;;;;;;;;;5376497;26;20323;-59
2024/04/22 10:43:45;;;;;;;10.23;6.97;;;;;;;;;;5372529;26;20001;-59
2024/04/22 10:46:11;;;;;;;;;;;;;;;;;;5374650;26;20020;-59
2024/04/22 10:48:43;;;;;;;9.98;7.75;;;;;;;;;;5381293;26;20450;-59
2024/04/22 10:51:10;;;;;;;10.73;7.28;;;;;;;;;;5381520;26;20019;-57
2024/04/22 10:53:38;;;;;;;12.05;7.53;;;;;;;;;;5381751;26;20020;-59
2024/04/22 10:56:05;;;;;;;9.80;7.22;;;;;;;;;;5376359;26;20410;-59
2024/04/22 10:58:33;;;;;;;10.98;6.82;;;;;;;;;;5380759;26;20004;-59
2024/04/22 11:00:59;;;;;;;12.00;8.82;;;;;;;;;;5374246;26;20019;-54
2024/04/22 11:03:29;;;;;;;12.00;8.15;;;;;;;;;;5381164;26;20015;-59
2024/04/22 11:06:03;;;;;;;10.48;7.57;;;;;;;;;;5380016;26;19996;-59
2024/04/22 11:08:32;;;;;;;10.65;6.70;;;;;;;;;;5379879;26;20008;-59
2024/04/22 11:10:58;;;;;;;12.27;7.68;;;;;;;;;;5376689;26;20020;-59
2024/04/22 11:13:27;;;;;;;12.13;7.63;;;;;;;;;;5381459;26;20004;-59
2024/04/22 11:15:53;;;;;;;9.65;6.78;;;;;;;;;;5380900;26;19996;-56
2024/04/22 11:18:23;;;;;;;11.65;7.35;;;;;;;;;;5376500;26;20466;-60
2024/04/22 11:20:49;;;;;;;10.02;7.00;;;;;;;;;;5372497;26;20019;-56
2024/04/22 11:23:20;;;;;;;10.63;7.20;;;;;;;;;;5380802;26;20004;-58
2024/04/22 11:25:46;;;;;;;11.38;7.85;;;;;;;;;;5366696;26;20012;-57
2024/04/22 11:28:15;;;;;;;12.25;7.88;;;;;;;;;;5393357;26;20336;-56
2024/04/22 11:30:41;;;;;;;11.68;7.63;;;;;;;;;;5381537;26;20047;-58
2024/04/22 11:33:10;;;;;;;11.93;8.02;;;;;;;;;;5378969;26;20328;-58
2024/04/22 11:35:36;;;;;;;9.68;6.75;;;;;;;;;;5380880;26;20016;-58
2024/04/22 11:38:05;;;;;;;10.30;7.20;;;;;;;;;;5380707;26;20012;-58
2024/04/22 11:40:38;;;;;;;10.68;7.35;;;;;;;;;;5380832;26;19996;-57
2024/04/22 11:43:07;;;;;;;10.50;6.90;;;;;;;;;;5380616;26;20019;-59
2024/04/22 11:45:33;;;;;;;10.88;7.68;;;;;;;;;;5380804;26;19997;-57
2024/04/22 11:48:02;;;;;;;11.15;7.97;;;;;;;;;;5380579;26;20339;-57
2024/04/22 11:50:28;;;;;;;12.30;7.45;;;;;;;;;;5380154;26;20004;-57
2024/04/22 11:52:56;;;;;;;8.57;6.78;;;;;;;;;;5380408;26;20023;-58
2024/04/22 11:55:22;;;;;;;10.27;7.50;;;;;;;;;;5380390;26;20027;-58
2024/04/22 11:57:53;;;;;;;10.52;7.07;;;;;;;;;;5373973;26;20075;-59
2024/04/22 12:00:19;;;;;;;9.23;6.82;;;;;;;;;;5371070;26;20339;-57
2024/04/22 12:02:48;;;;;;;9.68;6.88;;;;;;;;;;5379803;26;20000;-57
2024/04/22 12:05:14;;;;;;;10.88;6.93;;;;;;;;;;5380285;26;20001;-59
2024/04/22 12:07:44;;;;;;;10.75;6.30;;;;;;;;;;5380219;26;20353;-59
2024/04/22 12:10:10;;;;;;;7.57;6.20;;;;;;;;;;5380637;26;20010;-58
2024/04/22 12:12:38;;;;;;;10.90;6.90;;;;;;;;;;5380332;26;20075;-58
2024/04/22 12:15:08;;;;;;;14.57;7.07;;;;;;;;;;5380317;26;20012;-58
2024/04/22 12:17:37;;;;;;;9.85;7.30;;;;;;;;;;5379454;26;20010;-58
2024/04/22 12:20:04;;;;;;;10.13;6.88;;;;;;;;;;5395053;26;20008;-58
2024/04/22 12:22:32;;;;;;;11.30;7.07;;;;;;;;;;5380382;26;20444;-57
2024/04/22 12:24:58;;;;;;;10.48;7.47;;;;;;;;;;5374153;26;20008;-58
2024/04/22 12:27:27;;;;;;;8.82;6.25;;;;;;;;;;5380201;26;20004;-58
2024/04/22 12:29:53;;;;;;;9.82;6.20;;;;;;;;;;5380027;26;20008;-59
2024/04/22 12:32:24;;;;;;;8.85;6.00;;;;;;;;;;5375887;26;20001;-59
2024/04/22 12:34:50;;;;;;;9.68;6.85;;;;;;;;;;5377886;26;20000;-59
2024/04/22 12:37:19;;;;;;;9.40;6.35;;;;;;;;;;5379915;26;20000;-59
2024/04/22 12:39:45;;;;;;;9.00;6.57;;;;;;;;;;5380373;26;20474;-59
2024/04/22 12:42:14;;;;;;;9.27;5.85;;;;;;;;;;5380178;26;20001;-59
2024/04/22 12:44:40;;;;;;;8.23;5.95;;;;;;;;;;5379703;26;20012;-59
2024/04/22 12:52:39;;;;;;;9.65;6.38;;;;;;;;;;5382470;26;20075;-59
2024/04/22 12:55:08;;;;;;;8.57;5.97;;;;;;;;;;5379795;26;20016;-60
2024/04/22 12:57:34;;;;;;;9.40;6.70;;;;;;;;;;5379645;26;20387;-60
2024/04/22 13:00:08;;;;;;;9.82;5.93;;;;;;;;;;5361841;26;20056;-60
2024/04/22 13:02:37;;;;;;;10.00;6.28;;;;;;;;;;5372756;26;20446;-60
2024/04/22 13:05:09;;;;;;;7.55;5.85;;;;;;;;;;5376024;26;20027;-59
2024/04/22 13:07:34;;;;;;;7.28;5.03;;;;;;;;;;5377782;26;20452;-60
2024/04/22 13:10:03;;;;;;;8.30;5.30;;;;;;;;;;5378083;26;20001;-60
2024/04/22 13:12:32;;;;;;;8.95;6.03;;;;;;;;;;5365421;26;20016;-59
2024/04/22 13:15:00;;;;;;;9.02;5.35;;;;;;;;;;5372174;26;20004;-58
2024/04/22 13:17:27;;;;;;;7.55;5.40;;;;;;;;;;5373981;26;20015;-60
2024/04/22 13:19:55;;;;;;;7.80;5.25;;;;;;;;;;5379377;26;20015;-59
2024/04/22 13:22:24;;;;;;;8.68;4.85;;;;;;;;;;5372289;26;20019;-59
2024/04/22 13:24:52;;;;;;;7.80;5.40;;;;;;;;;;5379300;26;20385;-60
2024/04/22 13:27:18;;;;;;;8.55;5.75;;;;;;;;;;5378891;26;20008;-59
2024/04/22 13:29:47;;;;;;;7.90;5.32;;;;;;;;;;5372552;26;20001;-59
2024/04/22 13:32:15;;;;;;;8.75;5.72;;;;;;;;;;5387247;26;20011;-59
2024/04/22 13:34:43;;;;;;;7.20;5.10;;;;;;;;;;5379087;26;20343;-60
2024/04/22 13:37:09;;;;;;;8.68;5.75;;;;;;;;;;5372535;26;20015;-59
2024/04/22 13:39:41;;;;;;;8.30;5.43;;;;;;;;;;5379002;26;20028;-58
2024/04/22 13:42:07;;;;;;;9.65;6.45;;;;;;;;;;5362107;26;20017;-59
2024/04/22 13:44:35;;;;;;;9.27;5.65;;;;;;;;;;5360634;26;20001;-56
2024/04/22 13:47:01;;;;;;;9.25;4.63;;;;;;;;;;5375844;26;20004;-60
2024/04/22 13:49:30;;;;;;;8.63;4.82;;;;;;;;;;5379264;26;20004;-60
2024/04/22 13:51:55;;;;;;;7.20;5.05;;;;;;;;;;5361268;26;20012;-60
2024/04/22 13:54:24;;;;;;;8.27;4.82;;;;;;;;;;5373925;26;20023;-60
2024/04/22 13:56:53;;;;;;;7.50;4.43;;;;;;;;;;5378523;26;20009;-60
2024/04/22 13:59:21;;;;;;;7.13;4.82;;;;;;;;;;5373395;26;20000;-60
2024/04/22 14:01:47;;;;;;;7.88;5.03;;;;;;;;;;5361451;26;20023;-59
2024/04/22 14:04:15;;;;;;;7.90;5.07;;;;;;;;;;5371151;26;20012;-59
2024/04/22 14:06:41;;;;;;;7.38;4.63;;;;;;;;;;5378465;26;20082;-59
2024/04/22 14:09:10;;;;;;;7.20;4.30;;;;;;;;;;5378245;26;20439;-60
2024/04/22 14:11:36;;;;;;;11.70;6.70;;;;;;;;;;5376764;26;20011;-60
2024/04/22 14:14:07;;;;;;;7.53;5.18;;;;;;;;;;5363402;26;20012;-60
2024/04/22 14:16:33;;;;;;;6.93;4.55;;;;;;;;;;5366549;26;20779;-59
2024/04/22 14:19:01;;;;;;;8.25;4.55;;;;;;;;;;5362226;26;20011;-60
2024/04/22 14:21:27;;;;;;;7.32;4.20;;;;;;;;;;5374492;26;20016;-59
2024/04/22 14:23:56;;;;;;;8.27;4.82;;;;;;;;;;5378508;26;20001;-59
2024/04/22 14:26:23;;;;;;;6.07;4.72;;;;;;;;;;5389536;26;20404;-59
2024/04/22 14:28:52;;;;;;;5.88;4.07;;;;;;;;;;5377981;26;19996;-57
2024/04/22 14:31:20;;;;;;;7.00;4.07;;;;;;;;;;5378241;26;19997;-61
2024/04/22 14:33:52;;;;;;;6.60;3.97;;;;;;;;;;5357953;26;20011;-61
2024/04/22 14:36:18;;;;;;;6.07;4.13;;;;;;;;;;5361577;26;20687;-61
2024/04/22 14:38:46;;;;;;;7.55;4.15;;;;;;;;;;5365538;26;19996;-61
2024/04/22 14:41:12;;;;;;;6.03;3.97;;;;;;;;;;5381017;26;20036;-61
2024/04/22 14:43:41;;;;;;;7.90;4.40;;;;;;;;;;5381559;26;20073;-62
2024/04/22 14:46:07;;;;;;;7.07;4.18;;;;;;;;;;5381622;26;20451;-61
2024/04/22 14:48:38;;;;;;;6.35;4.22;;;;;;;;;;5381625;26;20459;-61
2024/04/22 14:51:07;;;;;;;8.35;4.05;;;;;;;;;;5371921;26;20448;-62